createdAt,value
2024-04-18T00:01:15.383Z,8.40
2024-04-18T00:03:42.857Z,10.23
2024-04-18T00:06:10.188Z,8.13
2024-04-18T00:08:37.572Z,9.80
2024-04-18T00:11:04.823Z,11.43
2024-04-18T00:13:32.012Z,9.37
2024-04-18T00:15:59.255Z,9.97
2024-04-18T00:18:26.751Z,11.87
2024-04-18T00:20:54.016Z,10.67
2024-04-18T00:23:21.246Z,11.10
2024-04-18T00:25:48.445Z,10.47
2024-04-18T00:28:15.653Z,12.40
2024-04-18T00:30:43.493Z,10.40
2024-04-18T00:33:11.109Z,10.30
2024-04-18T00:35:38.919Z,10.93
2024-04-18T00:38:06.127Z,19.17
2024-04-18T00:40:33.357Z,11.93
2024-04-18T00:43:01.041Z,11.33
2024-04-18T00:45:28.294Z,11.87
2024-04-18T00:47:55.611Z,12.03
2024-04-18T00:50:22.999Z,14.53
2024-04-18T00:52:50.248Z,11.23
2024-04-18T00:55:17.755Z,13.37
2024-04-18T00:57:45.196Z,8.87
2024-04-18T01:00:12.807Z,12.97
2024-04-18T01:02:40.308Z,10.27
2024-04-18T01:05:07.631Z,10.20
2024-04-18T01:07:35.322Z,10.80
2024-04-18T01:10:02.540Z,10.63
2024-04-18T01:12:29.849Z,11.20
2024-04-18T01:14:57.133Z,10.00
2024-04-18T01:17:24.438Z,10.20
2024-04-18T01:19:51.674Z,13.77
2024-04-18T01:22:19.169Z,10.53
2024-04-18T01:24:46.406Z,12.57
2024-04-18T01:27:13.693Z,11.37
2024-04-18T01:29:40.979Z,12.73
2024-04-18T01:32:08.179Z,13.47
2024-04-18T01:34:35.367Z,10.93
2024-04-18T01:37:02.635Z,10.70
2024-04-18T01:39:29.826Z,10.80
2024-04-18T01:41:57.116Z,10.90
2024-04-18T01:44:24.322Z,12.40
2024-04-18T01:46:51.510Z,13.47
2024-04-18T01:49:18.707Z,12.23
2024-04-18T01:51:46.148Z,11.70
2024-04-18T01:54:13.363Z,12.63
2024-04-18T01:56:40.592Z,13.60
2024-04-18T01:59:07.829Z,12.80
2024-04-18T02:01:35.019Z,15.60
2024-04-18T02:04:02.764Z,11.90
2024-04-18T02:06:30.141Z,12.33
2024-04-18T02:08:57.387Z,14.27
2024-04-18T02:11:24.611Z,15.70
2024-04-18T02:13:51.920Z,12.93
2024-04-18T02:16:19.166Z,11.03
2024-04-18T02:18:46.410Z,13.20
2024-04-18T02:21:13.646Z,14.90
2024-04-18T02:23:40.861Z,13.53
2024-04-18T02:26:08.057Z,13.13
2024-04-18T02:28:35.486Z,11.13
2024-04-18T02:31:04.731Z,16.93
2024-04-18T02:33:32.173Z,14.23
2024-04-18T02:35:59.376Z,13.30
2024-04-18T02:38:26.611Z,14.57
2024-04-18T02:41:02.041Z,10.73
2024-04-18T02:43:29.261Z,13.07
2024-04-18T02:45:56.650Z,15.43
2024-04-18T02:48:24.184Z,13.77
2024-04-18T02:50:51.510Z,9.63
2024-04-18T02:53:18.718Z,13.93
2024-04-18T02:55:45.885Z,11.40
2024-04-18T02:58:13.191Z,10.77
2024-04-18T03:00:40.448Z,14.00
2024-04-18T03:03:07.745Z,11.97
2024-04-18T03:05:35.019Z,14.27
2024-04-18T03:08:03.407Z,10.70
2024-04-18T03:10:33.176Z,11.00
2024-04-18T03:13:00.391Z,10.33
2024-04-18T03:15:27.663Z,11.30
2024-04-18T03:17:55.829Z,11.40
2024-04-18T03:20:23.385Z,10.17
2024-04-18T03:22:50.576Z,11.40
2024-04-18T03:25:17.975Z,9.80
2024-04-18T03:27:45.306Z,10.63
2024-04-18T03:30:12.669Z,8.90
2024-04-18T03:32:40.136Z,8.93
2024-04-18T03:35:07.631Z,9.53
2024-04-18T03:37:37.954Z,13.10
2024-04-18T03:40:06.602Z,9.43
2024-04-18T03:42:34.123Z,9.83
2024-04-18T03:45:01.392Z,7.67
2024-04-18T03:47:28.763Z,9.13
2024-04-18T03:49:56.080Z,10.97
2024-04-18T03:52:23.275Z,8.30
2024-04-18T03:55:00.735Z,10.70
2024-04-18T03:57:29.870Z,9.37
2024-04-18T03:59:57.125Z,9.93
2024-04-18T04:02:24.370Z,8.43
2024-04-18T04:04:51.861Z,10.37
2024-04-18T04:07:19.069Z,11.90
2024-04-18T04:09:46.764Z,10.60
2024-04-18T04:12:14.215Z,16.17
2024-04-18T04:14:41.428Z,8.00
2024-04-18T04:17:11.732Z,10.33
2024-04-18T04:19:38.943Z,8.43
2024-04-18T04:22:06.439Z,7.60
2024-04-18T04:24:33.637Z,11.53
2024-04-18T04:27:00.864Z,10.20
2024-04-18T04:29:28.089Z,8.43
2024-04-18T04:31:55.317Z,8.10
2024-04-18T04:34:22.509Z,11.33
2024-04-18T04:36:49.909Z,10.00
2024-04-18T04:39:17.236Z,9.43
2024-04-18T04:41:44.512Z,10.43
2024-04-18T04:44:11.752Z,14.60
2024-04-18T04:46:39.055Z,16.90
2024-04-18T04:49:06.343Z,8.93
2024-04-18T04:51:33.689Z,14.77
2024-04-18T04:54:00.934Z,9.97
2024-04-18T04:56:28.109Z,10.60
2024-04-18T04:58:55.316Z,13.53
2024-04-18T05:01:22.592Z,10.07
2024-04-18T05:03:50.045Z,10.27
2024-04-18T05:06:17.465Z,10.67
2024-04-18T05:08:46.838Z,9.83
2024-04-18T05:11:14.109Z,12.97
2024-04-18T05:13:41.463Z,12.37
2024-04-18T05:16:08.751Z,10.60
2024-04-18T05:18:36.201Z,10.43
2024-04-18T05:21:03.454Z,10.00
2024-04-18T05:23:30.693Z,10.87
2024-04-18T05:25:57.905Z,12.23
2024-04-18T05:28:41.676Z,12.37
2024-04-18T05:31:09.452Z,14.83
2024-04-18T05:33:36.800Z,14.00
2024-04-18T05:36:04.699Z,11.20
2024-04-18T05:38:35.736Z,12.00
2024-04-18T05:41:03.058Z,10.40
2024-04-18T05:43:31.854Z,9.17
2024-04-18T05:46:00.518Z,17.73
2024-04-18T05:48:27.787Z,10.93
2024-04-18T05:50:55.015Z,15.60
2024-04-18T05:53:22.627Z,11.53
2024-04-18T05:55:50.009Z,9.83
2024-04-18T05:58:17.513Z,11.20
2024-04-18T06:00:45.201Z,10.43
2024-04-18T06:03:12.539Z,8.30
2024-04-18T06:05:39.771Z,8.83
2024-04-18T06:08:07.122Z,9.30
2024-04-18T06:10:34.394Z,14.97
2024-04-18T06:13:01.573Z,11.13
2024-04-18T06:15:28.780Z,11.23
2024-04-18T06:17:56.112Z,10.87
2024-04-18T06:20:24.937Z,13.20
2024-04-18T06:22:52.180Z,10.70
2024-04-18T06:25:19.469Z,10.70
2024-04-18T06:27:47.103Z,11.80
2024-04-18T06:30:14.465Z,10.17
2024-04-18T06:32:41.815Z,11.57
2024-04-18T06:35:09.065Z,9.17
2024-04-18T06:37:36.334Z,7.77
2024-04-18T06:40:03.672Z,8.33
2024-04-18T06:42:31.121Z,7.47
2024-04-18T06:44:58.422Z,6.47
2024-04-18T06:47:25.638Z,7.07
2024-04-18T06:49:52.832Z,7.90
2024-04-18T06:52:20.124Z,9.03
2024-04-18T06:54:47.733Z,7.50
2024-04-18T06:57:15.042Z,5.60
2024-04-18T06:59:42.332Z,8.23
2024-04-18T07:02:09.561Z,5.07
2024-04-18T07:04:37.307Z,5.80
2024-04-18T07:07:08.009Z,6.10
2024-04-18T07:09:35.258Z,8.73
2024-04-18T07:12:02.511Z,5.03
2024-04-18T07:14:29.700Z,5.03
2024-04-18T07:16:56.899Z,5.63
2024-04-18T07:19:24.138Z,4.03
2024-04-18T07:21:51.922Z,3.13
2024-04-18T07:24:19.643Z,3.40
2024-04-18T07:26:46.979Z,1.83
2024-04-18T07:29:14.306Z,2.73
2024-04-18T07:31:41.537Z,3.47
2024-04-18T07:34:08.737Z,3.30
2024-04-18T07:36:36.496Z,3.70
2024-04-18T07:39:03.749Z,3.43
2024-04-18T07:41:31.151Z,4.83
2024-04-18T07:43:58.352Z,5.03
2024-04-18T07:46:31.287Z,5.47
2024-04-18T07:48:58.530Z,4.70
2024-04-18T07:51:25.829Z,5.67
2024-04-18T07:53:53.610Z,4.53
2024-04-18T07:56:21.648Z,4.20
2024-04-18T07:58:49.909Z,4.00
2024-04-18T08:01:19.310Z,3.10
2024-04-18T08:03:56.698Z,3.93
2024-04-18T08:06:36.811Z,4.53
2024-04-18T08:09:08.269Z,5.17
2024-04-18T08:14:11.814Z,5.27
2024-04-18T08:16:41.582Z,4.27
2024-04-18T08:19:08.849Z,3.80
2024-04-18T08:21:36.063Z,4.17
2024-04-18T08:24:03.499Z,3.67
2024-04-18T08:26:30.859Z,5.77
2024-04-18T08:28:58.617Z,4.80
2024-04-18T08:31:27.848Z,8.17
2024-04-18T08:33:58.508Z,5.53
2024-04-18T08:36:34.430Z,7.70
2024-04-18T08:39:01.736Z,7.10
2024-04-18T08:41:28.974Z,5.33
2024-04-18T08:44:00.640Z,6.20
2024-04-18T08:46:38.933Z,5.80
2024-04-18T08:49:11.593Z,4.67
2024-04-18T08:51:39.594Z,4.93
2024-04-18T08:54:06.867Z,4.73
2024-04-18T08:56:34.743Z,4.70
2024-04-18T08:59:02.425Z,7.97
2024-04-18T09:01:29.799Z,3.67
2024-04-18T09:03:57.969Z,3.93
2024-04-18T09:06:25.481Z,7.90
2024-04-18T09:09:01.662Z,5.47
2024-04-18T09:11:28.991Z,5.07
2024-04-18T09:13:56.176Z,5.63
2024-04-18T09:16:23.898Z,4.97
2024-04-18T09:18:52.144Z,4.90
2024-04-18T09:21:24.314Z,4.60
2024-04-18T09:23:52.291Z,3.60
2024-04-18T09:26:21.969Z,5.63
2024-04-18T09:28:49.165Z,7.47
2024-04-18T09:31:27.497Z,5.03
2024-04-18T09:34:02.325Z,7.03
2024-04-18T09:36:29.927Z,6.03
2024-04-18T09:39:00.648Z,6.33
2024-04-18T09:41:32.525Z,4.43
2024-04-18T09:44:02.957Z,5.47
2024-04-18T09:46:32.751Z,6.90
2024-04-18T09:49:01.287Z,4.17
2024-04-18T09:51:29.328Z,3.37
2024-04-18T09:53:57.313Z,5.47
2024-04-18T09:56:26.507Z,4.90
2024-04-18T09:58:54.300Z,4.23
2024-04-18T10:01:22.053Z,4.53
2024-04-18T10:03:49.649Z,4.23
2024-04-18T10:06:18.417Z,4.63
2024-04-18T10:08:52.088Z,7.00
2024-04-18T10:11:22.552Z,4.70
2024-04-18T10:13:51.008Z,4.73
2024-04-18T10:16:18.369Z,4.00
2024-04-18T10:18:45.677Z,4.53
2024-04-18T10:21:24.910Z,4.30
2024-04-18T10:23:56.103Z,5.73
2024-04-18T10:26:23.602Z,4.77
2024-04-18T10:28:51.591Z,5.23
2024-04-18T10:31:19.165Z,6.27
2024-04-18T10:33:46.674Z,5.27
2024-04-18T10:36:17.614Z,5.27
2024-04-18T10:38:45.841Z,5.47
2024-04-18T10:41:19.810Z,3.87
2024-04-18T10:43:47.524Z,5.07
2024-04-18T10:46:15.216Z,2.97
2024-04-18T10:48:43.626Z,4.73
2024-04-18T10:51:11.188Z,17.47
2024-04-18T10:53:39.038Z,2.93
2024-04-18T10:56:06.702Z,2.97
2024-04-18T10:58:34.051Z,3.50
2024-04-18T11:01:01.943Z,2.93
2024-04-18T11:03:29.463Z,3.47
2024-04-18T11:05:57.168Z,4.07
2024-04-18T11:08:29.679Z,3.43
2024-04-18T11:10:58.361Z,3.60
2024-04-18T11:13:25.781Z,2.63
2024-04-18T11:15:53.777Z,3.43
2024-04-18T11:18:23.518Z,4.60
2024-04-18T11:20:50.885Z,3.63
2024-04-18T11:23:18.075Z,4.63
2024-04-18T11:25:45.540Z,11.00
2024-04-18T11:28:13.773Z,3.93
2024-04-18T11:30:42.109Z,3.87
2024-04-18T11:33:12.963Z,4.13
2024-04-18T11:35:40.789Z,3.40
2024-04-18T11:38:10.388Z,3.77
2024-04-18T11:40:37.920Z,1.57
2024-04-18T11:43:05.311Z,2.17
2024-04-18T11:45:32.595Z,2.73
2024-04-18T11:48:00.061Z,1.93
2024-04-18T11:50:27.454Z,2.17
2024-04-18T11:52:55.108Z,4.70
2024-04-18T11:55:23.125Z,4.00
2024-04-18T11:57:50.446Z,11.70
2024-04-18T12:00:17.888Z,9.60
2024-04-18T12:02:45.114Z,5.03
2024-04-18T12:05:12.650Z,6.47
2024-04-18T12:07:39.943Z,9.77
2024-04-18T12:10:07.318Z,19.00
2024-04-18T12:12:34.661Z,44.40
2024-04-18T12:15:02.028Z,51.40
2024-04-18T12:17:30.411Z,53.17
2024-04-18T12:19:57.733Z,39.07
2024-04-18T12:22:25.123Z,27.80
2024-04-18T12:24:52.390Z,32.80
2024-04-18T12:27:19.674Z,18.50
2024-04-18T12:29:48.976Z,17.50
2024-04-18T12:32:23.275Z,15.13
2024-04-18T12:34:50.970Z,6.10
2024-04-18T12:37:18.398Z,4.50
2024-04-18T12:39:49.491Z,5.03
2024-04-18T12:42:16.920Z,3.90
2024-04-18T12:44:44.151Z,3.37
2024-04-18T12:47:11.777Z,6.10
2024-04-18T12:49:42.220Z,3.27
2024-04-18T12:52:09.495Z,5.13
2024-04-18T12:54:36.857Z,3.97
2024-04-18T12:57:04.619Z,3.50
2024-04-18T12:59:31.967Z,4.07
2024-04-18T13:01:59.261Z,4.33
2024-04-18T13:04:26.762Z,6.77
2024-04-18T13:06:54.061Z,3.53
2024-04-18T13:09:21.338Z,2.90
2024-04-18T13:11:48.569Z,3.73
2024-04-18T13:14:15.845Z,4.87
2024-04-18T13:16:43.835Z,4.67
2024-04-18T13:19:14.384Z,5.60
2024-04-18T13:21:41.718Z,3.90
2024-04-18T13:24:11.670Z,4.67
2024-04-18T13:26:39.218Z,3.23
2024-04-18T13:29:06.603Z,3.87
2024-04-18T13:31:33.818Z,4.27
2024-04-18T13:34:03.948Z,3.20
2024-04-18T13:36:31.319Z,3.90
2024-04-18T13:38:59.143Z,3.70
2024-04-18T13:41:28.131Z,2.87
2024-04-18T13:43:59.742Z,4.30
2024-04-18T13:46:27.069Z,3.63
2024-04-18T13:48:54.701Z,3.60
2024-04-18T13:51:22.050Z,5.60
2024-04-18T13:53:51.559Z,2.50
2024-04-18T13:56:19.060Z,4.07
2024-04-18T13:58:49.281Z,6.50
2024-04-18T14:01:16.644Z,3.23
2024-04-18T14:03:43.866Z,2.10
2024-04-18T14:06:11.282Z,5.00
2024-04-18T14:08:39.283Z,2.17
2024-04-18T14:11:06.571Z,3.33
2024-04-18T14:13:33.887Z,4.03
2024-04-18T14:16:22.989Z,3.43
2024-04-18T14:18:50.326Z,2.40
2024-04-18T14:21:17.917Z,1.73
2024-04-18T14:23:45.311Z,6.93
2024-04-18T14:26:12.549Z,2.73
2024-04-18T14:28:39.737Z,3.67
2024-04-18T14:31:06.916Z,3.37
2024-04-18T14:33:34.250Z,3.03
2024-04-18T14:36:01.516Z,4.13
2024-04-18T14:38:29.891Z,5.90
2024-04-18T14:41:05.639Z,5.23
2024-04-18T14:43:38.449Z,4.60
2024-04-18T14:46:05.725Z,5.00
2024-04-18T14:48:34.825Z,4.17
2024-04-18T14:51:02.508Z,4.30
2024-04-18T14:53:29.872Z,3.63
2024-04-18T14:55:57.129Z,3.27
2024-04-18T14:58:24.371Z,13.00
2024-04-18T15:00:53.066Z,12.23
2024-04-18T15:03:20.856Z,9.87
2024-04-18T15:05:58.027Z,6.50
2024-04-18T15:08:25.446Z,4.13
2024-04-18T15:10:53.281Z,9.40
2024-04-18T15:13:20.559Z,5.93
2024-04-18T15:15:47.874Z,4.07
2024-04-18T15:18:15.404Z,5.57
2024-04-18T15:20:42.747Z,4.73
2024-04-18T15:23:11.009Z,5.37
2024-04-18T15:25:38.504Z,4.60
2024-04-18T15:28:06.258Z,3.53
2024-04-18T15:30:33.595Z,4.43
2024-04-18T15:33:01.037Z,8.93
2024-04-18T15:35:28.399Z,5.80
2024-04-18T15:37:55.598Z,5.50
2024-04-18T15:40:22.851Z,4.70
2024-04-18T15:42:50.049Z,5.13
2024-04-18T15:45:17.367Z,6.00
2024-04-18T15:47:44.641Z,6.90
2024-04-18T15:50:11.852Z,4.63
2024-04-18T15:52:41.985Z,4.20
2024-04-18T15:55:15.948Z,5.83
2024-04-18T15:57:48.681Z,3.87
2024-04-18T16:00:16.184Z,2.80
2024-04-18T16:05:11.069Z,3.07
2024-04-18T16:07:38.318Z,5.53
2024-04-18T16:10:07.895Z,3.80
2024-04-18T16:12:35.154Z,5.97
2024-04-18T16:15:06.173Z,4.13
2024-04-18T16:17:34.130Z,3.60
2024-04-18T16:20:01.496Z,5.27
2024-04-18T16:22:29.682Z,4.53
2024-04-18T16:24:56.914Z,4.77
2024-04-18T16:27:24.164Z,4.93
2024-04-18T16:29:51.385Z,5.00
2024-04-18T16:32:18.583Z,2.93
2024-04-18T16:34:45.764Z,2.77
2024-04-18T16:37:15.284Z,3.80
2024-04-18T16:39:44.827Z,7.70
2024-04-18T16:42:12.190Z,7.27
2024-04-18T16:44:39.392Z,8.60
2024-04-18T16:47:06.668Z,6.40
2024-04-18T16:49:33.917Z,5.03
2024-04-18T16:52:01.128Z,5.77
2024-04-18T16:54:28.383Z,6.17
2024-04-18T16:56:55.662Z,6.00
2024-04-18T16:59:22.827Z,4.87
2024-04-18T17:01:50.015Z,4.97
2024-04-18T17:04:17.320Z,3.83
2024-04-18T17:06:48.250Z,3.17
2024-04-18T17:09:20.004Z,4.00
2024-04-18T17:11:47.619Z,5.17
2024-04-18T17:14:15.560Z,3.83
2024-04-18T17:16:42.790Z,9.57
2024-04-18T17:19:10.116Z,4.83
2024-04-18T17:21:40.013Z,4.57
2024-04-18T17:24:07.560Z,3.90
2024-04-18T17:26:34.802Z,18.20
2024-04-18T17:29:02.078Z,9.73
2024-04-18T17:31:29.356Z,6.47
2024-04-18T17:33:56.668Z,11.13
2024-04-18T17:36:23.911Z,16.30
2024-04-18T17:38:51.299Z,5.47
2024-04-18T17:41:18.547Z,3.77
2024-04-18T17:43:48.036Z,5.47
2024-04-18T17:46:15.392Z,4.83
2024-04-18T17:48:44.209Z,5.13
2024-04-18T17:51:11.654Z,4.40
2024-04-18T17:53:38.863Z,4.97
2024-04-18T17:56:06.390Z,7.13
2024-04-18T17:58:33.632Z,4.43
2024-04-18T18:01:00.850Z,7.47
2024-04-18T18:03:28.644Z,5.40
2024-04-18T18:05:55.862Z,4.93
2024-04-18T18:08:23.246Z,7.13
2024-04-18T18:10:50.522Z,8.17
2024-04-18T18:13:17.741Z,7.93
2024-04-18T18:15:45.727Z,8.30
2024-04-18T18:18:14.150Z,11.37
2024-04-18T18:20:41.641Z,8.30
2024-04-18T18:23:08.991Z,7.57
2024-04-18T18:25:36.175Z,6.80
2024-04-18T18:28:03.433Z,10.30
2024-04-18T18:30:31.008Z,9.60
2024-04-18T18:32:58.299Z,10.87
2024-04-18T18:35:25.603Z,12.17
2024-04-18T18:37:55.252Z,15.43
2024-04-18T18:40:22.562Z,11.10
2024-04-18T18:42:49.870Z,10.80
2024-04-18T18:45:17.195Z,10.53
2024-04-18T18:47:44.540Z,9.47
2024-04-18T18:50:11.755Z,13.13
2024-04-18T18:52:40.184Z,22.57
2024-04-18T18:55:07.985Z,20.37
2024-04-18T18:57:35.328Z,15.37
2024-04-18T19:00:02.582Z,13.27
2024-04-18T19:02:29.885Z,12.17
2024-04-18T19:04:57.125Z,14.53
2024-04-18T19:07:24.395Z,14.03
2024-04-18T19:09:52.323Z,19.20
2024-04-18T19:12:19.651Z,30.27
2024-04-18T19:14:46.937Z,43.30
2024-04-18T19:17:14.253Z,42.73
2024-04-18T19:19:41.535Z,45.13
2024-04-18T19:22:08.725Z,27.73
2024-04-18T19:24:35.945Z,30.37
2024-04-18T19:27:03.560Z,25.17
2024-04-18T19:29:40.119Z,22.00
2024-04-18T19:32:13.816Z,21.40
2024-04-18T19:34:41.133Z,20.07
2024-04-18T19:37:08.413Z,16.87
2024-04-18T19:39:35.914Z,17.60
2024-04-18T19:42:03.254Z,25.80
2024-04-18T19:44:31.851Z,27.80
2024-04-18T19:46:59.215Z,26.33
2024-04-18T19:49:28.217Z,27.33
2024-04-18T19:52:00.051Z,23.17
2024-04-18T19:54:29.442Z,23.37
2024-04-18T19:56:56.664Z,22.53
2024-04-18T19:59:23.916Z,24.27
2024-04-18T20:01:51.134Z,21.60
2024-04-18T20:04:18.555Z,21.90
2024-04-18T20:06:45.914Z,24.87
2024-04-18T20:09:13.161Z,22.97
2024-04-18T20:11:40.664Z,31.57
2024-04-18T20:14:07.956Z,28.93
2024-04-18T20:16:35.694Z,30.67
2024-04-18T20:19:03.149Z,32.77
2024-04-18T20:21:30.594Z,32.90
2024-04-18T20:23:57.921Z,47.73
2024-04-18T20:26:25.150Z,66.57
2024-04-18T20:28:52.346Z,76.87
2024-04-18T20:31:19.648Z,74.47
2024-04-18T20:33:46.888Z,73.27
2024-04-18T20:36:16.130Z,68.73
2024-04-18T20:38:43.397Z,79.37
2024-04-18T20:41:10.617Z,65.33
2024-04-18T20:43:37.824Z,62.13
2024-04-18T20:46:05.118Z,41.97
2024-04-18T20:48:32.604Z,38.90
2024-04-18T20:50:59.860Z,37.63
2024-04-18T20:53:27.037Z,40.47
2024-04-18T20:55:54.277Z,42.47
2024-04-18T20:58:21.508Z,34.43
2024-04-18T21:00:49.058Z,23.83
2024-04-18T21:03:16.399Z,22.73
2024-04-18T21:05:47.617Z,22.10
2024-04-18T21:08:15.093Z,22.13
2024-04-18T21:10:42.959Z,19.10
2024-04-18T21:13:13.851Z,21.67
2024-04-18T21:15:41.527Z,22.17
2024-04-18T21:18:09.234Z,17.40
2024-04-18T21:20:36.889Z,17.80
2024-04-18T21:23:04.247Z,18.90
2024-04-18T21:25:33.195Z,16.60
2024-04-18T21:28:00.590Z,18.87
2024-04-18T21:30:27.835Z,17.50
2024-04-18T21:32:55.151Z,15.80
2024-04-18T21:35:22.430Z,17.47
2024-04-18T21:37:49.634Z,15.83
2024-04-18T21:40:17.412Z,17.33
2024-04-18T21:42:44.681Z,16.70
2024-04-18T21:45:11.956Z,15.77
2024-04-18T21:47:39.299Z,17.90
2024-04-18T21:50:06.839Z,13.37
2024-04-18T21:52:34.224Z,19.77
2024-04-18T21:55:01.688Z,15.60
2024-04-18T21:57:28.910Z,15.00
2024-04-18T21:59:56.193Z,16.17
2024-04-18T22:02:23.589Z,13.77
2024-04-18T22:04:50.800Z,18.30
2024-04-18T22:07:17.987Z,15.40
2024-04-18T22:09:45.311Z,15.00
2024-04-18T22:12:12.649Z,13.00
2024-04-18T22:14:39.956Z,13.67
2024-04-18T22:17:07.227Z,11.57
2024-04-18T22:19:34.596Z,10.83
2024-04-18T22:22:01.844Z,9.80
2024-04-18T22:24:29.059Z,12.83
2024-04-18T22:26:56.251Z,12.87
2024-04-18T22:29:23.633Z,10.53
2024-04-18T22:31:50.823Z,10.20
2024-04-18T22:34:25.001Z,10.83
2024-04-18T22:36:58.245Z,9.37
2024-04-18T22:39:25.439Z,14.33
2024-04-18T22:41:52.780Z,12.10
2024-04-18T22:44:21.352Z,12.60
2024-04-18T22:46:48.582Z,14.70
2024-04-18T22:49:15.864Z,16.93
2024-04-18T22:51:43.192Z,12.70
2024-04-18T22:54:10.470Z,11.77
2024-04-18T22:56:37.691Z,13.13
2024-04-18T22:59:04.857Z,14.07
2024-04-18T23:01:32.331Z,13.30
2024-04-18T23:03:59.640Z,13.80
2024-04-18T23:06:27.037Z,13.63
2024-04-18T23:08:56.032Z,13.03
2024-04-18T23:11:23.336Z,13.77
2024-04-18T23:13:50.638Z,16.43
2024-04-18T23:16:17.831Z,13.30
2024-04-18T23:18:45.207Z,11.43
2024-04-18T23:21:12.583Z,14.23
2024-04-18T23:23:39.790Z,14.70
2024-04-18T23:26:07.008Z,19.43
2024-04-18T23:28:34.244Z,18.83
2024-04-18T23:31:01.931Z,12.73
2024-04-18T23:33:29.387Z,13.17
2024-04-18T23:35:56.737Z,13.73
2024-04-18T23:38:24.142Z,13.37
2024-04-18T23:40:51.398Z,15.77
2024-04-18T23:43:19.013Z,13.40
2024-04-18T23:45:46.257Z,14.80
2024-04-18T23:48:13.830Z,14.97
2024-04-18T23:50:42.442Z,17.00
2024-04-18T23:53:09.733Z,15.73
2024-04-18T23:55:37.161Z,17.27
2024-04-18T23:58:04.682Z,14.13
